Espaço - Ciências - Fenômenos Naturais
Meteógrafos Informações Meteorológicas em tempo real

Aeroporto de Congonhas

Histórico do Tempo
Temperatura atual: 22 graus 71 F    Umidade relativa: 60 %
Velocidade do vento: 06 nós 10 Km/h    Direção: 020 graus NNE
Ajuste do altímetro ..: 1025 HPA
Visibilidade: Ótima    Tempo presente: Céu Limpo

Observação

Data Hora BRTTempo°CUmidadePressãoVentoVisib.
10/12 - 10:55   Céu Limpo 22° 60% 1025 Norte-nordeste/10 km/h OK
10/12 - 09:55   Céu Limpo 22° 60% 1025 Norte-nordeste/10 km/h OK
10/12 - 08:55   Céu Limpo 18° 77% 1025 Nordeste/9 km/h OK
10/12 - 07:55   Céu Limpo 18° 77% 1025 Nordeste/9 km/h OK
10/12 - 06:55   Céu Limpo 16° 82% 1023 Nordeste/9 km/h OK
10/12 - 05:55   Céu Limpo 17° 77% 1022 Este-nordeste/12 km/h CAVO
10/12 - 04:55   Céu Limpo 18° 72% 1022 Este-nordeste/14 km/h CAVO
10/12 - 03:55   Céu Limpo 18° 72% 1023 Este-nordeste/7 km/h CAVO
10/12 - 02:55   Céu Limpo 18° 68% 1024 Este-nordeste/7 km/h CAVO
10/12 - 01:55   Céu Limpo 17° 72% 1024 Sudeste/5 km/h OK
10/12 - 00:55   Céu Limpo 17° 72% 1024 Sudeste/5 km/h OK
09/12 - 23:55   Céu Limpo 17° 77% 1024 Sudeste/7 km/h CAVO
09/12 - 22:55   Céu Limpo 17° 77% 1024 Sudeste/9 km/h OK
09/12 - 21:55   Céu Limpo 18° 72% 1024 Sul-sudeste/16 km/h OK
09/12 - 20:55   Céu Limpo 18° 72% 1024 Sul-sudeste/16 km/h OK
09/12 - 19:55   Céu Limpo 21° 60% 1022 Sul/18 km/h OK
09/12 - 18:55   Céu Limpo 21° 60% 1022 Sul/18 km/h OK
09/12 - 17:55   Céu Limpo 22° 56% 1021 Sul-sudeste/14 km/h OK
09/12 - 16:55   Não Disponível 23° 53% 1022 Sudeste/14 km/h OK
09/12 - 15:55   Não Disponível 23° 53% 1022 Sul-sudeste/16 km/h OK
09/12 - 14:55   Não Disponível 24° 53% 1023 Sul/19 km/h OK
09/12 - 13:55   Não Disponível 24° 53% 1023 Sul/19 km/h OK
09/12 - 12:55   Céu Limpo 23° 46% 1024 Este-sudeste/9 km/h OK
09/12 - 11:55   Céu Limpo 23° 46% 1024 Este-sudeste/9 km/h OK


Apolo11.com - Todos os direitos reservados - 2000 - 2018
Política de Privacidade   |     Termo de Uso e Licenciamento   |  -   Entre em Contato

"Ainda que eu fale a língua dos homens e dos anjos, se não tiver amor, nada serei" - 1 Coríntios 13,1